sensor_id;sensor_type;location;lat;lon;timestamp;P1;durP1;ratioP1;P2;durP2;ratioP2
16440;SDS011;8330;-33.858;151.184;2022-10-16T00:02:04;1.95;;;0.73;;
16440;SDS011;8330;-33.858;151.184;2022-10-16T00:04:35;1.50;;;0.70;;
16440;SDS011;8330;-33.858;151.184;2022-10-16T00:07:08;3.70;;;0.82;;
16440;SDS011;8330;-33.858;151.184;2022-10-16T00:09:39;3.60;;;1.10;;
16440;SDS011;8330;-33.858;151.184;2022-10-16T00:12:10;4.68;;;1.10;;
16440;SDS011;8330;-33.858;151.184;2022-10-16T00:14:40;2.42;;;0.98;;
16440;SDS011;8330;-33.858;151.184;2022-10-16T00:17:11;4.72;;;1.08;;
16440;SDS011;8330;-33.858;151.184;2022-10-16T00:19:44;4.72;;;1.15;;
16440;SDS011;8330;-33.858;151.184;2022-10-16T00:22:17;4.65;;;1.10;;
16440;SDS011;8330;-33.858;151.184;2022-10-16T00:24:47;4.13;;;1.13;;
16440;SDS011;8330;-33.858;151.184;2022-10-16T00:27:18;4.15;;;0.88;;
16440;SDS011;8330;-33.858;151.184;2022-10-16T00:29:49;2.30;;;0.90;;
16440;SDS011;8330;-33.858;151.184;2022-10-16T00:32:21;4.88;;;1.13;;
16440;SDS011;8330;-33.858;151.184;2022-10-16T00:34:51;6.20;;;0.90;;
16440;SDS011;8330;-33.858;151.184;2022-10-16T00:37:24;3.45;;;0.82;;
16440;SDS011;8330;-33.858;151.184;2022-10-16T00:39:55;7.20;;;1.20;;
16440;SDS011;8330;-33.858;151.184;2022-10-16T00:42:26;4.82;;;0.95;;
16440;SDS011;8330;-33.858;151.184;2022-10-16T00:44:57;5.72;;;1.10;;
16440;SDS011;8330;-33.858;151.184;2022-10-16T00:47:28;6.93;;;1.15;;
16440;SDS011;8330;-33.858;151.184;2022-10-16T00:50:02;4.38;;;1.15;;
16440;SDS011;8330;-33.858;151.184;2022-10-16T00:52:41;3.42;;;1.00;;
16440;SDS011;8330;-33.858;151.184;2022-10-16T00:55:15;6.53;;;0.90;;
16440;SDS011;8330;-33.858;151.184;2022-10-16T00:57:47;5.72;;;1.02;;
16440;SDS011;8330;-33.858;151.184;2022-10-16T01:00:20;2.70;;;0.80;;
16440;SDS011;8330;-33.858;151.184;2022-10-16T01:02:52;4.50;;;0.90;;
16440;SDS011;8330;-33.858;151.184;2022-10-16T01:05:24;6.47;;;1.15;;
16440;SDS011;8330;-33.858;151.184;2022-10-16T01:08:02;4.43;;;0.98;;
16440;SDS011;8330;-33.858;151.184;2022-10-16T01:10:44;7.40;;;1.00;;
16440;SDS011;8330;-33.858;151.184;2022-10-16T01:13:25;5.20;;;0.85;;
16440;SDS011;8330;-33.858;151.184;2022-10-16T01:16:04;3.78;;;1.08;;
16440;SDS011;8330;-33.858;151.184;2022-10-16T01:18:42;3.92;;;0.80;;
16440;SDS011;8330;-33.858;151.184;2022-10-16T01:21:16;3.58;;;0.80;;
16440;SDS011;8330;-33.858;151.184;2022-10-16T01:23:58;4.38;;;1.00;;
16440;SDS011;8330;-33.858;151.184;2022-10-16T01:26:42;4.47;;;0.85;;
16440;SDS011;8330;-33.858;151.184;2022-10-16T01:29:25;4.00;;;0.88;;
16440;SDS011;8330;-33.858;151.184;2022-10-16T01:32:00;4.78;;;0.90;;
16440;SDS011;8330;-33.858;151.184;2022-10-16T01:34:40;3.65;;;1.00;;
16440;SDS011;8330;-33.858;151.184;2022-10-16T01:37:18;3.15;;;0.82;;
16440;SDS011;8330;-33.858;151.184;2022-10-16T01:39:58;4.10;;;1.00;;
16440;SDS011;8330;-33.858;151.184;2022-10-16T01:42:32;5.25;;;0.88;;
16440;SDS011;8330;-33.858;151.184;2022-10-16T01:45:08;5.05;;;0.90;;
16440;SDS011;8330;-33.858;151.184;2022-10-16T01:47:44;5.70;;;0.88;;
16440;SDS011;8330;-33.858;151.184;2022-10-16T01:50:16;3.30;;;1.00;;
16440;SDS011;8330;-33.858;151.184;2022-10-16T01:52:49;4.28;;;0.93;;
16440;SDS011;8330;-33.858;151.184;2022-10-16T01:55:24;3.33;;;0.90;;
16440;SDS011;8330;-33.858;151.184;2022-10-16T01:57:58;3.85;;;0.90;;
16440;SDS011;8330;-33.858;151.184;2022-10-16T02:00:33;4.00;;;0.95;;
16440;SDS011;8330;-33.858;151.184;2022-10-16T02:03:06;4.38;;;1.15;;
16440;SDS011;8330;-33.858;151.184;2022-10-16T02:05:40;2.70;;;0.73;;
16440;SDS011;8330;-33.858;151.184;2022-10-16T02:08:14;3.42;;;0.90;;
16440;SDS011;8330;-33.858;151.184;2022-10-16T02:10:45;3.28;;;0.88;;
16440;SDS011;8330;-33.858;151.184;2022-10-16T02:13:17;4.72;;;0.88;;
16440;SDS011;8330;-33.858;151.184;2022-10-16T02:15:52;5.43;;;0.90;;
16440;SDS011;8330;-33.858;151.184;2022-10-16T02:18:23;6.35;;;1.08;;
16440;SDS011;8330;-33.858;151.184;2022-10-16T02:20:57;2.47;;;0.90;;
16440;SDS011;8330;-33.858;151.184;2022-10-16T02:23:34;5.15;;;0.98;;
16440;SDS011;8330;-33.858;151.184;2022-10-16T02:26:11;4.50;;;0.93;;
16440;SDS011;8330;-33.858;151.184;2022-10-16T02:28:48;5.25;;;1.15;;
16440;SDS011;8330;-33.858;151.184;2022-10-16T02:31:27;5.10;;;1.20;;
16440;SDS011;8330;-33.858;151.184;2022-10-16T02:34:00;2.13;;;0.70;;
16440;SDS011;8330;-33.858;151.184;2022-10-16T02:36:33;3.78;;;0.77;;
16440;SDS011;8330;-33.858;151.184;2022-10-16T02:39:05;4.38;;;1.33;;
16440;SDS011;8330;-33.858;151.184;2022-10-16T02:41:37;3.72;;;1.00;;
16440;SDS011;8330;-33.858;151.184;2022-10-16T02:44:08;3.42;;;0.85;;
16440;SDS011;8330;-33.858;151.184;2022-10-16T02:46:42;3.97;;;1.08;;
16440;SDS011;8330;-33.858;151.184;2022-10-16T02:49:13;3.15;;;0.95;;
16440;SDS011;8330;-33.858;151.184;2022-10-16T02:51:44;5.03;;;0.98;;
16440;SDS011;8330;-33.858;151.184;2022-10-16T02:54:15;5.15;;;1.17;;
16440;SDS011;8330;-33.858;151.184;2022-10-16T02:56:46;3.90;;;1.00;;
16440;SDS011;8330;-33.858;151.184;2022-10-16T02:59:17;3.40;;;0.85;;
16440;SDS011;8330;-33.858;151.184;2022-10-16T03:01:50;3.53;;;0.88;;
16440;SDS011;8330;-33.858;151.184;2022-10-16T03:04:21;3.35;;;0.80;;
16440;SDS011;8330;-33.858;151.184;2022-10-16T03:06:52;2.92;;;1.00;;
16440;SDS011;8330;-33.858;151.184;2022-10-16T03:09:23;3.40;;;0.85;;
16440;SDS011;8330;-33.858;151.184;2022-10-16T03:11:54;4.45;;;1.40;;
16440;SDS011;8330;-33.858;151.184;2022-10-16T03:14:25;4.60;;;1.02;;
16440;SDS011;8330;-33.858;151.184;2022-10-16T03:16:58;4.38;;;1.13;;
16440;SDS011;8330;-33.858;151.184;2022-10-16T03:19:30;6.03;;;1.17;;
16440;SDS011;8330;-33.858;151.184;2022-10-16T03:22:01;4.18;;;1.00;;
16440;SDS011;8330;-33.858;151.184;2022-10-16T03:24:32;4.05;;;1.10;;
16440;SDS011;8330;-33.858;151.184;2022-10-16T03:27:03;4.97;;;1.00;;
16440;SDS011;8330;-33.858;151.184;2022-10-16T03:29:34;2.72;;;1.00;;
16440;SDS011;8330;-33.858;151.184;2022-10-16T03:32:09;2.97;;;0.90;;
16440;SDS011;8330;-33.858;151.184;2022-10-16T03:34:40;2.97;;;1.00;;
16440;SDS011;8330;-33.858;151.184;2022-10-16T03:37:11;2.22;;;0.77;;
16440;SDS011;8330;-33.858;151.184;2022-10-16T03:39:43;3.90;;;0.85;;
16440;SDS011;8330;-33.858;151.184;2022-10-16T03:42:14;3.42;;;1.00;;
16440;SDS011;8330;-33.858;151.184;2022-10-16T03:44:45;4.00;;;0.80;;
16440;SDS011;8330;-33.858;151.184;2022-10-16T03:47:18;3.22;;;0.95;;
16440;SDS011;8330;-33.858;151.184;2022-10-16T03:49:49;4.30;;;0.80;;
16440;SDS011;8330;-33.858;151.184;2022-10-16T03:52:20;2.30;;;0.75;;
16440;SDS011;8330;-33.858;151.184;2022-10-16T03:54:51;4.30;;;0.95;;
16440;SDS011;8330;-33.858;151.184;2022-10-16T03:57:22;4.78;;;0.93;;
16440;SDS011;8330;-33.858;151.184;2022-10-16T03:59:53;3.47;;;0.80;;
16440;SDS011;8330;-33.858;151.184;2022-10-16T04:02:26;4.70;;;1.05;;
16440;SDS011;8330;-33.858;151.184;2022-10-16T04:04:57;3.63;;;0.90;;
16440;SDS011;8330;-33.858;151.184;2022-10-16T04:07:28;4.70;;;1.02;;
16440;SDS011;8330;-33.858;151.184;2022-10-16T04:10:00;3.42;;;1.10;;
16440;SDS011;8330;-33.858;151.184;2022-10-16T04:12:32;3.38;;;0.98;;
16440;SDS011;8330;-33.858;151.184;2022-10-16T04:15:03;3.33;;;0.93;;
16440;SDS011;8330;-33.858;151.184;2022-10-16T04:17:36;4.32;;;0.85;;
16440;SDS011;8330;-33.858;151.184;2022-10-16T04:20:09;2.97;;;1.20;;
16440;SDS011;8330;-33.858;151.184;2022-10-16T04:22:40;3.20;;;1.10;;
16440;SDS011;8330;-33.858;151.184;2022-10-16T04:25:11;5.03;;;1.00;;
16440;SDS011;8330;-33.858;151.184;2022-10-16T04:27:42;6.90;;;1.58;;
16440;SDS011;8330;-33.858;151.184;2022-10-16T04:30:13;4.00;;;1.20;;
16440;SDS011;8330;-33.858;151.184;2022-10-16T04:32:49;2.53;;;0.75;;
16440;SDS011;8330;-33.858;151.184;2022-10-16T04:35:21;4.40;;;1.00;;
16440;SDS011;8330;-33.858;151.184;2022-10-16T04:37:52;4.95;;;1.00;;
16440;SDS011;8330;-33.858;151.184;2022-10-16T04:40:23;2.90;;;1.15;;
16440;SDS011;8330;-33.858;151.184;2022-10-16T04:42:54;1.65;;;0.70;;
16440;SDS011;8330;-33.858;151.184;2022-10-16T04:45:25;3.10;;;0.90;;
16440;SDS011;8330;-33.858;151.184;2022-10-16T04:47:59;3.47;;;0.75;;
16440;SDS011;8330;-33.858;151.184;2022-10-16T04:50:30;4.10;;;0.85;;
16440;SDS011;8330;-33.858;151.184;2022-10-16T04:53:03;3.55;;;0.90;;
16440;SDS011;8330;-33.858;151.184;2022-10-16T04:55:34;2.95;;;0.75;;
16440;SDS011;8330;-33.858;151.184;2022-10-16T04:58:05;4.32;;;0.95;;
16440;SDS011;8330;-33.858;151.184;2022-10-16T05:00:36;4.25;;;0.82;;
16440;SDS011;8330;-33.858;151.184;2022-10-16T05:03:09;3.30;;;0.90;;
16440;SDS011;8330;-33.858;151.184;2022-10-16T05:05:42;2.67;;;0.90;;
16440;SDS011;8330;-33.858;151.184;2022-10-16T05:08:14;5.97;;;0.85;;
16440;SDS011;8330;-33.858;151.184;2022-10-16T05:10:45;3.95;;;0.85;;
16440;SDS011;8330;-33.858;151.184;2022-10-16T05:13:16;4.13;;;1.00;;
16440;SDS011;8330;-33.858;151.184;2022-10-16T05:15:47;3.13;;;0.98;;
16440;SDS011;8330;-33.858;151.184;2022-10-16T05:18:20;2.55;;;0.70;;
16440;SDS011;8330;-33.858;151.184;2022-10-16T05:20:51;3.13;;;0.90;;
16440;SDS011;8330;-33.858;151.184;2022-10-16T05:23:23;5.03;;;1.60;;
16440;SDS011;8330;-33.858;151.184;2022-10-16T05:25:57;4.25;;;1.10;;
16440;SDS011;8330;-33.858;151.184;2022-10-16T05:28:29;3.53;;;0.90;;
16440;SDS011;8330;-33.858;151.184;2022-10-16T05:31:00;3.65;;;1.08;;
16440;SDS011;8330;-33.858;151.184;2022-10-16T05:33:36;2.88;;;0.90;;
16440;SDS011;8330;-33.858;151.184;2022-10-16T05:36:08;2.58;;;0.98;;
16440;SDS011;8330;-33.858;151.184;2022-10-16T05:38:39;3.08;;;0.93;;
16440;SDS011;8330;-33.858;151.184;2022-10-16T05:41:11;2.45;;;1.08;;
16440;SDS011;8330;-33.858;151.184;2022-10-16T05:43:50;5.65;;;1.10;;
16440;SDS011;8330;-33.858;151.184;2022-10-16T05:46:50;4.63;;;1.10;;
16440;SDS011;8330;-33.858;151.184;2022-10-16T05:49:25;4.15;;;1.30;;
16440;SDS011;8330;-33.858;151.184;2022-10-16T05:51:57;2.63;;;0.88;;
16440;SDS011;8330;-33.858;151.184;2022-10-16T05:54:28;6.57;;;1.05;;
16440;SDS011;8330;-33.858;151.184;2022-10-16T05:56:59;7.28;;;1.00;;
16440;SDS011;8330;-33.858;151.184;2022-10-16T05:59:33;3.45;;;1.10;;
16440;SDS011;8330;-33.858;151.184;2022-10-16T06:02:04;3.25;;;0.80;;
16440;SDS011;8330;-33.858;151.184;2022-10-16T06:04:44;5.55;;;0.90;;
16440;SDS011;8330;-33.858;151.184;2022-10-16T06:07:15;2.13;;;0.77;;
16440;SDS011;8330;-33.858;151.184;2022-10-16T06:09:51;2.35;;;0.98;;
16440;SDS011;8330;-33.858;151.184;2022-10-16T06:12:22;3.50;;;1.20;;
16440;SDS011;8330;-33.858;151.184;2022-10-16T06:14:53;3.38;;;1.27;;
16440;SDS011;8330;-33.858;151.184;2022-10-16T06:17:25;3.53;;;1.00;;
16440;SDS011;8330;-33.858;151.184;2022-10-16T06:20:01;3.22;;;0.85;;
16440;SDS011;8330;-33.858;151.184;2022-10-16T06:22:32;2.45;;;0.80;;
16440;SDS011;8330;-33.858;151.184;2022-10-16T06:25:05;4.93;;;1.00;;
16440;SDS011;8330;-33.858;151.184;2022-10-16T06:27:38;5.68;;;1.05;;
16440;SDS011;8330;-33.858;151.184;2022-10-16T06:30:10;5.65;;;1.15;;
16440;SDS011;8330;-33.858;151.184;2022-10-16T06:32:41;5.43;;;1.08;;
16440;SDS011;8330;-33.858;151.184;2022-10-16T06:35:14;3.78;;;1.10;;
16440;SDS011;8330;-33.858;151.184;2022-10-16T06:37:45;3.45;;;0.95;;
16440;SDS011;8330;-33.858;151.184;2022-10-16T06:40:16;8.43;;;1.48;;
16440;SDS011;8330;-33.858;151.184;2022-10-16T06:42:47;3.22;;;1.02;;
16440;SDS011;8330;-33.858;151.184;2022-10-16T06:45:18;4.07;;;1.27;;
16440;SDS011;8330;-33.858;151.184;2022-10-16T06:47:51;4.80;;;1.10;;
16440;SDS011;8330;-33.858;151.184;2022-10-16T06:50:34;5.15;;;1.00;;
16440;SDS011;8330;-33.858;151.184;2022-10-16T06:53:05;2.75;;;0.80;;
16440;SDS011;8330;-33.858;151.184;2022-10-16T06:55:36;4.18;;;0.80;;
16440;SDS011;8330;-33.858;151.184;2022-10-16T06:58:18;3.83;;;1.13;;
16440;SDS011;8330;-33.858;151.184;2022-10-16T07:00:54;3.78;;;1.25;;
16440;SDS011;8330;-33.858;151.184;2022-10-16T07:03:29;3.80;;;1.30;;
16440;SDS011;8330;-33.858;151.184;2022-10-16T07:06:09;5.22;;;1.10;;
16440;SDS011;8330;-33.858;151.184;2022-10-16T07:08:45;3.20;;;0.77;;
16440;SDS011;8330;-33.858;151.184;2022-10-16T07:11:19;3.67;;;0.77;;
16440;SDS011;8330;-33.858;151.184;2022-10-16T07:13:53;4.82;;;1.05;;
16440;SDS011;8330;-33.858;151.184;2022-10-16T07:16:28;3.55;;;0.80;;
16440;SDS011;8330;-33.858;151.184;2022-10-16T07:19:08;3.08;;;0.93;;
16440;SDS011;8330;-33.858;151.184;2022-10-16T07:21:44;2.85;;;1.00;;
16440;SDS011;8330;-33.858;151.184;2022-10-16T07:24:15;2.38;;;0.82;;
16440;SDS011;8330;-33.858;151.184;2022-10-16T07:26:50;3.05;;;0.80;;
16440;SDS011;8330;-33.858;151.184;2022-10-16T07:29:40;3.60;;;1.10;;
16440;SDS011;8330;-33.858;151.184;2022-10-16T07:32:16;3.95;;;1.15;;
16440;SDS011;8330;-33.858;151.184;2022-10-16T07:34:47;4.43;;;0.90;;
16440;SDS011;8330;-33.858;151.184;2022-10-16T07:37:33;5.38;;;0.90;;
16440;SDS011;8330;-33.858;151.184;2022-10-16T07:40:05;3.03;;;1.05;;
16440;SDS011;8330;-33.858;151.184;2022-10-16T07:45:51;4.38;;;1.70;;
16440;SDS011;8330;-33.858;151.184;2022-10-16T07:48:50;4.63;;;1.23;;
16440;SDS011;8330;-33.858;151.184;2022-10-16T07:51:22;3.70;;;0.85;;
16440;SDS011;8330;-33.858;151.184;2022-10-16T07:54:03;3.28;;;1.00;;
16440;SDS011;8330;-33.858;151.184;2022-10-16T07:56:47;2.75;;;0.75;;
16440;SDS011;8330;-33.858;151.184;2022-10-16T07:59:24;4.57;;;0.90;;
16440;SDS011;8330;-33.858;151.184;2022-10-16T08:01:58;4.47;;;0.90;;
16440;SDS011;8330;-33.858;151.184;2022-10-16T08:04:42;3.15;;;1.17;;
16440;SDS011;8330;-33.858;151.184;2022-10-16T08:07:19;5.65;;;1.00;;
16440;SDS011;8330;-33.858;151.184;2022-10-16T08:10:09;2.90;;;1.00;;
16440;SDS011;8330;-33.858;151.184;2022-10-16T08:12:48;4.90;;;1.45;;
16440;SDS011;8330;-33.858;151.184;2022-10-16T08:15:31;4.75;;;1.50;;
16440;SDS011;8330;-33.858;151.184;2022-10-16T08:18:02;3.85;;;1.10;;
16440;SDS011;8330;-33.858;151.184;2022-10-16T08:20:33;8.55;;;3.63;;
16440;SDS011;8330;-33.858;151.184;2022-10-16T08:23:07;4.57;;;1.40;;
16440;SDS011;8330;-33.858;151.184;2022-10-16T08:25:42;4.43;;;1.48;;
16440;SDS011;8330;-33.858;151.184;2022-10-16T08:28:13;5.50;;;1.48;;
16440;SDS011;8330;-33.858;151.184;2022-10-16T08:30:45;4.85;;;1.58;;
16440;SDS011;8330;-33.858;151.184;2022-10-16T08:33:16;6.18;;;1.35;;
16440;SDS011;8330;-33.858;151.184;2022-10-16T08:35:50;3.47;;;1.30;;
16440;SDS011;8330;-33.858;151.184;2022-10-16T08:38:22;5.03;;;1.35;;
16440;SDS011;8330;-33.858;151.184;2022-10-16T08:40:55;2.83;;;1.08;;
16440;SDS011;8330;-33.858;151.184;2022-10-16T08:43:41;3.53;;;1.27;;
16440;SDS011;8330;-33.858;151.184;2022-10-16T08:46:33;4.05;;;1.98;;
16440;SDS011;8330;-33.858;151.184;2022-10-16T08:49:12;2.22;;;1.10;;
16440;SDS011;8330;-33.858;151.184;2022-10-16T08:51:47;3.90;;;1.63;;
16440;SDS011;8330;-33.858;151.184;2022-10-16T08:54:26;4.43;;;1.70;;
16440;SDS011;8330;-33.858;151.184;2022-10-16T08:57:07;3.53;;;1.13;;
16440;SDS011;8330;-33.858;151.184;2022-10-16T08:59:42;5.90;;;1.27;;
16440;SDS011;8330;-33.858;151.184;2022-10-16T09:02:21;2.42;;;0.95;;
16440;SDS011;8330;-33.858;151.184;2022-10-16T09:05:01;6.18;;;1.10;;
16440;SDS011;8330;-33.858;151.184;2022-10-16T09:07:48;4.32;;;1.35;;
16440;SDS011;8330;-33.858;151.184;2022-10-16T09:10:38;3.88;;;1.38;;
16440;SDS011;8330;-33.858;151.184;2022-10-16T09:16:12;3.25;;;1.30;;
16440;SDS011;8330;-33.858;151.184;2022-10-16T09:18:52;6.18;;;1.30;;
16440;SDS011;8330;-33.858;151.184;2022-10-16T09:21:30;3.80;;;1.48;;
16440;SDS011;8330;-33.858;151.184;2022-10-16T09:24:09;5.70;;;1.20;;
16440;SDS011;8330;-33.858;151.184;2022-10-16T09:26:42;2.53;;;1.05;;
16440;SDS011;8330;-33.858;151.184;2022-10-16T09:29:16;3.75;;;1.10;;
16440;SDS011;8330;-33.858;151.184;2022-10-16T09:31:48;4.53;;;1.23;;
16440;SDS011;8330;-33.858;151.184;2022-10-16T09:34:22;2.42;;;1.10;;
16440;SDS011;8330;-33.858;151.184;2022-10-16T09:36:59;4.03;;;1.52;;
16440;SDS011;8330;-33.858;151.184;2022-10-16T09:39:44;4.63;;;1.70;;
16440;SDS011;8330;-33.858;151.184;2022-10-16T09:42:16;2.72;;;1.20;;
16440;SDS011;8330;-33.858;151.184;2022-10-16T09:48:02;3.15;;;1.10;;
16440;SDS011;8330;-33.858;151.184;2022-10-16T09:50:54;4.05;;;1.00;;
16440;SDS011;8330;-33.858;151.184;2022-10-16T09:53:35;4.68;;;1.23;;
16440;SDS011;8330;-33.858;151.184;2022-10-16T09:56:27;2.97;;;0.90;;
16440;SDS011;8330;-33.858;151.184;2022-10-16T09:59:10;2.95;;;1.10;;
16440;SDS011;8330;-33.858;151.184;2022-10-16T10:01:50;4.22;;;1.35;;
16440;SDS011;8330;-33.858;151.184;2022-10-16T10:04:23;3.92;;;1.10;;
16440;SDS011;8330;-33.858;151.184;2022-10-16T10:07:17;4.75;;;1.00;;
16440;SDS011;8330;-33.858;151.184;2022-10-16T10:09:52;3.88;;;1.45;;
16440;SDS011;8330;-33.858;151.184;2022-10-16T10:12:31;3.15;;;1.05;;
16440;SDS011;8330;-33.858;151.184;2022-10-16T10:15:06;6.50;;;1.20;;
16440;SDS011;8330;-33.858;151.184;2022-10-16T10:20:42;6.47;;;1.30;;
16440;SDS011;8330;-33.858;151.184;2022-10-16T10:23:34;3.72;;;0.98;;
16440;SDS011;8330;-33.858;151.184;2022-10-16T10:26:12;5.20;;;1.10;;
16440;SDS011;8330;-33.858;151.184;2022-10-16T10:28:50;4.13;;;1.23;;
16440;SDS011;8330;-33.858;151.184;2022-10-16T10:31:46;5.45;;;1.10;;
16440;SDS011;8330;-33.858;151.184;2022-10-16T10:34:37;2.80;;;1.15;;
16440;SDS011;8330;-33.858;151.184;2022-10-16T10:37:40;6.13;;;1.20;;
16440;SDS011;8330;-33.858;151.184;2022-10-16T10:40:45;7.00;;;1.98;;
16440;SDS011;8330;-33.858;151.184;2022-10-16T10:43:29;5.40;;;1.40;;
16440;SDS011;8330;-33.858;151.184;2022-10-16T10:46:11;4.18;;;1.23;;
16440;SDS011;8330;-33.858;151.184;2022-10-16T10:49:06;4.28;;;1.20;;
16440;SDS011;8330;-33.858;151.184;2022-10-16T10:51:51;5.13;;;1.38;;
16440;SDS011;8330;-33.858;151.184;2022-10-16T10:54:40;4.47;;;1.10;;
16440;SDS011;8330;-33.858;151.184;2022-10-16T10:57:25;6.05;;;1.30;;
16440;SDS011;8330;-33.858;151.184;2022-10-16T11:00:17;6.68;;;1.55;;
16440;SDS011;8330;-33.858;151.184;2022-10-16T11:02:58;7.32;;;1.65;;
16440;SDS011;8330;-33.858;151.184;2022-10-16T11:05:58;7.03;;;1.65;;
16440;SDS011;8330;-33.858;151.184;2022-10-16T11:08:36;6.97;;;1.92;;
16440;SDS011;8330;-33.858;151.184;2022-10-16T11:11:14;4.85;;;1.40;;
16440;SDS011;8330;-33.858;151.184;2022-10-16T11:13:51;5.47;;;1.73;;
16440;SDS011;8330;-33.858;151.184;2022-10-16T11:16:48;9.45;;;1.63;;
16440;SDS011;8330;-33.858;151.184;2022-10-16T11:19:37;6.32;;;1.40;;
16440;SDS011;8330;-33.858;151.184;2022-10-16T11:22:20;10.10;;;1.60;;
16440;SDS011;8330;-33.858;151.184;2022-10-16T11:24:58;5.32;;;1.50;;
16440;SDS011;8330;-33.858;151.184;2022-10-16T11:27:37;10.80;;;1.70;;
16440;SDS011;8330;-33.858;151.184;2022-10-16T11:30:13;7.53;;;1.35;;
16440;SDS011;8330;-33.858;151.184;2022-10-16T11:32:56;4.95;;;1.27;;
16440;SDS011;8330;-33.858;151.184;2022-10-16T11:35:48;7.68;;;1.63;;
16440;SDS011;8330;-33.858;151.184;2022-10-16T11:38:26;9.82;;;1.95;;
16440;SDS011;8330;-33.858;151.184;2022-10-16T11:41:00;10.57;;;1.60;;
16440;SDS011;8330;-33.858;151.184;2022-10-16T11:43:43;6.65;;;1.30;;
16440;SDS011;8330;-33.858;151.184;2022-10-16T11:46:21;6.90;;;1.35;;
16440;SDS011;8330;-33.858;151.184;2022-10-16T11:48:55;9.30;;;1.90;;
16440;SDS011;8330;-33.858;151.184;2022-10-16T11:51:33;8.38;;;1.70;;
16440;SDS011;8330;-33.858;151.184;2022-10-16T11:54:12;7.80;;;1.80;;
16440;SDS011;8330;-33.858;151.184;2022-10-16T11:57:07;6.38;;;1.50;;
16440;SDS011;8330;-33.858;151.184;2022-10-16T11:59:59;7.28;;;1.27;;
16440;SDS011;8330;-33.858;151.184;2022-10-16T12:02:46;12.90;;;1.98;;
16440;SDS011;8330;-33.858;151.184;2022-10-16T12:05:28;6.97;;;1.40;;
16440;SDS011;8330;-33.858;151.184;2022-10-16T12:08:08;11.10;;;1.83;;
16440;SDS011;8330;-33.858;151.184;2022-10-16T12:10:45;10.80;;;1.88;;
16440;SDS011;8330;-33.858;151.184;2022-10-16T12:13:28;9.15;;;1.70;;
16440;SDS011;8330;-33.858;151.184;2022-10-16T12:16:19;10.52;;;1.80;;
16440;SDS011;8330;-33.858;151.184;2022-10-16T12:19:07;7.82;;;1.58;;
16440;SDS011;8330;-33.858;151.184;2022-10-16T12:21:44;10.63;;;1.70;;
16440;SDS011;8330;-33.858;151.184;2022-10-16T12:24:26;6.80;;;1.48;;
16440;SDS011;8330;-33.858;151.184;2022-10-16T12:27:06;7.40;;;1.50;;
16440;SDS011;8330;-33.858;151.184;2022-10-16T12:29:54;7.68;;;1.95;;
16440;SDS011;8330;-33.858;151.184;2022-10-16T12:32:40;9.48;;;1.88;;
16440;SDS011;8330;-33.858;151.184;2022-10-16T12:35:18;8.88;;;1.80;;
16440;SDS011;8330;-33.858;151.184;2022-10-16T12:37:51;6.43;;;1.80;;
16440;SDS011;8330;-33.858;151.184;2022-10-16T12:40:26;14.15;;;2.03;;
16440;SDS011;8330;-33.858;151.184;2022-10-16T12:43:10;8.05;;;1.48;;
16440;SDS011;8330;-33.858;151.184;2022-10-16T12:45:59;8.43;;;1.60;;
16440;SDS011;8330;-33.858;151.184;2022-10-16T12:48:33;6.53;;;1.75;;
16440;SDS011;8330;-33.858;151.184;2022-10-16T12:51:12;6.07;;;1.63;;
16440;SDS011;8330;-33.858;151.184;2022-10-16T12:54:01;9.15;;;1.90;;
16440;SDS011;8330;-33.858;151.184;2022-10-16T12:56:36;6.43;;;1.80;;
16440;SDS011;8330;-33.858;151.184;2022-10-16T12:59:18;7.68;;;1.50;;
16440;SDS011;8330;-33.858;151.184;2022-10-16T13:07:53;8.40;;;1.58;;
16440;SDS011;8330;-33.858;151.184;2022-10-16T13:10:32;4.75;;;1.50;;
16440;SDS011;8330;-33.858;151.184;2022-10-16T13:16:08;4.47;;;1.13;;
16440;SDS011;8330;-33.858;151.184;2022-10-16T13:18:50;9.05;;;1.90;;
16440;SDS011;8330;-33.858;151.184;2022-10-16T13:21:33;7.53;;;1.77;;
16440;SDS011;8330;-33.858;151.184;2022-10-16T13:24:18;6.65;;;1.52;;
16440;SDS011;8330;-33.858;151.184;2022-10-16T13:26:56;7.80;;;1.67;;
16440;SDS011;8330;-33.858;151.184;2022-10-16T13:29:35;8.30;;;1.45;;
16440;SDS011;8330;-33.858;151.184;2022-10-16T13:32:09;7.40;;;1.27;;
16440;SDS011;8330;-33.858;151.184;2022-10-16T13:34:44;6.85;;;1.20;;
16440;SDS011;8330;-33.858;151.184;2022-10-16T13:37:22;5.18;;;1.40;;
16440;SDS011;8330;-33.858;151.184;2022-10-16T13:40:11;8.68;;;1.80;;
16440;SDS011;8330;-33.858;151.184;2022-10-16T13:42:49;7.50;;;1.63;;
16440;SDS011;8330;-33.858;151.184;2022-10-16T13:45:22;8.55;;;1.52;;
16440;SDS011;8330;-33.858;151.184;2022-10-16T13:48:01;9.60;;;1.73;;
16440;SDS011;8330;-33.858;151.184;2022-10-16T13:50:33;8.77;;;1.75;;
16440;SDS011;8330;-33.858;151.184;2022-10-16T13:53:10;9.95;;;1.92;;
16440;SDS011;8330;-33.858;151.184;2022-10-16T13:55:44;6.93;;;1.45;;
16440;SDS011;8330;-33.858;151.184;2022-10-16T13:58:15;5.88;;;1.58;;
16440;SDS011;8330;-33.858;151.184;2022-10-16T14:00:56;7.75;;;2.08;;
16440;SDS011;8330;-33.858;151.184;2022-10-16T14:03:27;7.03;;;1.60;;
16440;SDS011;8330;-33.858;151.184;2022-10-16T14:06:02;6.85;;;1.50;;
16440;SDS011;8330;-33.858;151.184;2022-10-16T14:08:41;5.72;;;1.50;;
16440;SDS011;8330;-33.858;151.184;2022-10-16T14:11:19;5.43;;;1.55;;
16440;SDS011;8330;-33.858;151.184;2022-10-16T14:13:52;4.88;;;1.20;;
16440;SDS011;8330;-33.858;151.184;2022-10-16T14:16:24;5.18;;;1.50;;
16440;SDS011;8330;-33.858;151.184;2022-10-16T14:18:57;7.25;;;1.48;;
16440;SDS011;8330;-33.858;151.184;2022-10-16T14:21:32;9.00;;;1.60;;
16440;SDS011;8330;-33.858;151.184;2022-10-16T14:24:13;9.48;;;1.80;;
16440;SDS011;8330;-33.858;151.184;2022-10-16T14:26:54;6.70;;;1.58;;
16440;SDS011;8330;-33.858;151.184;2022-10-16T14:29:25;5.88;;;1.60;;
16440;SDS011;8330;-33.858;151.184;2022-10-16T14:31:59;4.43;;;1.23;;
16440;SDS011;8330;-33.858;151.184;2022-10-16T14:34:30;3.55;;;1.17;;
16440;SDS011;8330;-33.858;151.184;2022-10-16T14:37:05;7.03;;;1.60;;
16440;SDS011;8330;-33.858;151.184;2022-10-16T14:39:48;8.50;;;1.52;;
16440;SDS011;8330;-33.858;151.184;2022-10-16T14:42:20;6.00;;;1.33;;
16440;SDS011;8330;-33.858;151.184;2022-10-16T14:44:52;5.60;;;1.55;;
16440;SDS011;8330;-33.858;151.184;2022-10-16T14:47:24;7.93;;;1.35;;
16440;SDS011;8330;-33.858;151.184;2022-10-16T14:49:55;7.28;;;1.35;;
16440;SDS011;8330;-33.858;151.184;2022-10-16T14:52:26;6.88;;;1.55;;
16440;SDS011;8330;-33.858;151.184;2022-10-16T14:55:02;6.97;;;1.40;;
16440;SDS011;8330;-33.858;151.184;2022-10-16T14:57:37;4.85;;;1.50;;
16440;SDS011;8330;-33.858;151.184;2022-10-16T15:00:10;9.95;;;1.85;;
16440;SDS011;8330;-33.858;151.184;2022-10-16T15:02:47;7.28;;;1.42;;
16440;SDS011;8330;-33.858;151.184;2022-10-16T15:05:19;8.18;;;1.50;;
16440;SDS011;8330;-33.858;151.184;2022-10-16T15:07:50;10.05;;;2.00;;
16440;SDS011;8330;-33.858;151.184;2022-10-16T15:10:25;6.53;;;1.40;;
16440;SDS011;8330;-33.858;151.184;2022-10-16T15:12:58;8.52;;;1.58;;
16440;SDS011;8330;-33.858;151.184;2022-10-16T15:15:36;7.78;;;1.20;;
16440;SDS011;8330;-33.858;151.184;2022-10-16T15:18:11;7.13;;;1.40;;
16440;SDS011;8330;-33.858;151.184;2022-10-16T15:20:48;7.32;;;1.50;;
16440;SDS011;8330;-33.858;151.184;2022-10-16T15:23:20;6.22;;;1.33;;
16440;SDS011;8330;-33.858;151.184;2022-10-16T15:25:54;4.95;;;1.30;;
16440;SDS011;8330;-33.858;151.184;2022-10-16T15:28:27;5.15;;;1.42;;
16440;SDS011;8330;-33.858;151.184;2022-10-16T15:30:58;5.20;;;1.13;;
16440;SDS011;8330;-33.858;151.184;2022-10-16T15:33:30;8.18;;;1.67;;
16440;SDS011;8330;-33.858;151.184;2022-10-16T15:36:02;11.07;;;1.70;;